createdAt,value
2022-09-20T00:02:12.946Z,8.30
2022-09-20T00:06:14.681Z,8.30
2022-09-20T00:10:12.016Z,8.40
2022-09-20T00:14:09.103Z,8.40
2022-09-20T00:18:06.127Z,8.40
2022-09-20T00:22:03.096Z,8.40
2022-09-20T00:26:05.040Z,8.50
2022-09-20T00:30:02.111Z,8.50
2022-09-20T00:34:17.893Z,8.50
2022-09-20T00:38:16.209Z,8.50
2022-09-20T00:42:15.263Z,8.50
2022-09-20T00:46:45.672Z,8.40
2022-09-20T00:51:14.877Z,8.40
2022-09-20T00:55:14.082Z,8.30
2022-09-20T00:59:35.028Z,8.30
2022-09-20T01:03:35.633Z,8.30
2022-09-20T01:07:34.395Z,8.30
2022-09-20T01:11:32.077Z,8.40
2022-09-20T01:15:33.222Z,8.40
2022-09-20T01:19:50.123Z,8.40
2022-09-20T01:24:03.910Z,8.30
2022-09-20T01:28:00.982Z,8.40
2022-09-20T01:32:04.221Z,8.40
2022-09-20T01:36:06.181Z,8.40
2022-09-20T01:40:31.871Z,8.40
2022-09-20T01:45:04.480Z,8.50
2022-09-20T01:49:10.721Z,8.40
2022-09-20T01:53:44.419Z,8.50
2022-09-20T01:58:09.053Z,8.40
2022-09-20T02:02:09.115Z,8.40
2022-09-20T02:06:39.416Z,8.40
2022-09-20T02:11:07.067Z,8.50
2022-09-20T02:15:42.490Z,8.60
2022-09-20T02:20:15.738Z,8.50
2022-09-20T02:24:53.479Z,8.50
2022-09-20T02:29:10.492Z,8.50
2022-09-20T02:33:28.520Z,8.50
2022-09-20T02:38:00.277Z,8.40
2022-09-20T02:42:06.116Z,8.50
2022-09-20T02:46:12.347Z,8.50
2022-09-20T02:50:45.727Z,8.50
2022-09-20T02:55:10.766Z,8.50
2022-09-20T02:59:38.896Z,8.50
2022-09-20T03:03:57.523Z,8.40
2022-09-20T03:08:32.141Z,8.40
2022-09-20T03:13:09.778Z,8.40
2022-09-20T03:17:47.478Z,8.40
2022-09-20T03:22:31.416Z,8.50
2022-09-20T03:27:05.752Z,8.40
2022-09-20T03:31:32.992Z,8.40
2022-09-20T03:35:41.327Z,8.40
2022-09-20T03:39:59.895Z,8.40
2022-09-20T03:43:56.800Z,8.40
2022-09-20T03:48:39.349Z,8.30
2022-09-20T03:52:57.909Z,8.40
2022-09-20T03:57:28.814Z,8.40
2022-09-20T04:02:03.821Z,8.30
2022-09-20T04:06:50.672Z,8.20
2022-09-20T04:11:06.160Z,8.20
2022-09-20T04:15:35.647Z,8.20
2022-09-20T04:19:52.188Z,8.20
2022-09-20T04:24:30.133Z,8.20
2022-09-20T04:28:59.352Z,8.10
2022-09-20T04:33:25.270Z,8.20
2022-09-20T04:37:33.892Z,8.20
2022-09-20T04:42:08.155Z,8.20
2022-09-20T04:46:44.150Z,8.20
2022-09-20T04:50:46.783Z,8.10
2022-09-20T04:55:57.085Z,8.10
2022-09-20T05:00:22.650Z,7.90
2022-09-20T05:05:09.986Z,7.80
2022-09-20T05:09:31.110Z,7.80
2022-09-20T05:14:03.344Z,7.70
2022-09-20T05:18:18.477Z,7.80
2022-09-20T05:22:54.357Z,8.00
2022-09-20T05:27:53.070Z,8.00
2022-09-20T05:32:03.268Z,8.00
2022-09-20T05:36:56.564Z,8.10
2022-09-20T05:41:39.233Z,8.10
2022-09-20T05:46:12.305Z,8.00
2022-09-20T05:50:55.380Z,8.00
2022-09-20T05:55:27.192Z,8.10
2022-09-20T05:59:40.293Z,8.20
2022-09-20T06:03:55.857Z,8.20
2022-09-20T06:08:20.697Z,8.30
2022-09-20T06:12:43.812Z,8.30
2022-09-20T06:16:47.021Z,8.30
2022-09-20T06:21:31.336Z,8.40
2022-09-20T06:25:48.539Z,8.40
2022-09-20T06:29:53.226Z,8.60
2022-09-20T06:34:10.029Z,8.80
2022-09-20T06:38:46.720Z,9.10
2022-09-20T06:42:44.718Z,9.00
2022-09-20T06:46:41.910Z,9.00
2022-09-20T06:50:39.962Z,9.10
2022-09-20T06:54:38.029Z,9.20
2022-09-20T06:58:35.042Z,9.30
2022-09-20T07:02:32.073Z,9.20
2022-09-20T07:06:29.332Z,9.20
2022-09-20T07:10:28.271Z,9.50
2022-09-20T07:14:26.482Z,9.80
2022-09-20T07:18:23.435Z,10.10
2022-09-20T07:22:21.576Z,10.00
2022-09-20T07:26:28.691Z,9.80
2022-09-20T07:30:26.070Z,9.90
2022-09-20T07:34:23.208Z,10.30
2022-09-20T07:38:21.951Z,10.20
2022-09-20T07:42:18.939Z,10.10
2022-09-20T07:46:15.920Z,10.00
2022-09-20T07:50:13.076Z,9.80
2022-09-20T07:54:10.144Z,9.70
2022-09-20T07:58:07.090Z,9.80
2022-09-20T08:02:07.097Z,9.80
2022-09-20T08:06:16.157Z,9.90
2022-09-20T08:10:13.094Z,10.00
2022-09-20T08:14:15.727Z,10.00
2022-09-20T08:18:13.475Z,9.90
2022-09-20T08:22:12.642Z,9.90
2022-09-20T08:26:13.367Z,9.70
2022-09-20T08:30:11.675Z,9.70
2022-09-20T08:34:11.654Z,9.80
2022-09-20T08:42:35.761Z,10.90
2022-09-20T08:46:43.665Z,11.30
2022-09-20T08:50:40.589Z,11.60
2022-09-20T08:54:37.749Z,11.50
2022-09-20T08:58:34.748Z,11.50
2022-09-20T09:02:34.501Z,11.30
2022-09-20T09:06:32.012Z,11.40
2022-09-20T09:10:42.596Z,11.80
2022-09-20T09:14:48.988Z,11.80
2022-09-20T09:18:49.487Z,12.00
2022-09-20T09:22:47.821Z,12.10
2022-09-20T09:26:45.074Z,12.10
2022-09-20T09:30:50.722Z,12.50
2022-09-20T09:34:48.083Z,13.30
2022-09-20T09:38:47.200Z,13.20
2022-09-20T09:43:00.306Z,12.90
2022-09-20T09:46:58.328Z,12.60
2022-09-20T09:51:17.900Z,13.00
2022-09-20T09:55:14.906Z,13.20
2022-09-20T09:59:46.937Z,13.20
2022-09-20T10:04:11.145Z,13.80
2022-09-20T10:08:26.202Z,14.00
2022-09-20T10:13:01.846Z,13.70
2022-09-20T10:17:06.281Z,12.50
2022-09-20T10:21:44.216Z,11.80
2022-09-20T10:26:25.633Z,12.50
2022-09-20T10:30:35.777Z,14.10
2022-09-20T10:35:11.685Z,15.50
2022-09-20T10:39:35.073Z,15.90
2022-09-20T10:44:10.474Z,15.10
2022-09-20T10:48:41.056Z,13.30
2022-09-20T10:52:56.200Z,11.90
2022-09-20T10:57:24.100Z,11.40
2022-09-20T11:01:55.048Z,11.80
2022-09-20T11:06:14.275Z,12.20
2022-09-20T11:10:25.977Z,11.60
2022-09-20T11:14:35.258Z,11.20
2022-09-20T11:19:03.126Z,11.30
2022-09-20T11:23:40.884Z,11.60
2022-09-20T11:27:49.254Z,12.50
2022-09-20T11:31:53.260Z,13.20
2022-09-20T11:35:56.062Z,13.40
2022-09-20T11:39:55.746Z,13.20
2022-09-20T11:43:57.438Z,13.20
2022-09-20T11:48:03.372Z,13.20
2022-09-20T11:52:33.659Z,12.70
2022-09-20T11:56:34.595Z,12.60
2022-09-20T12:00:38.078Z,13.10
2022-09-20T12:04:36.917Z,13.40
2022-09-20T12:08:41.788Z,14.70
2022-09-20T12:12:47.917Z,16.10
2022-09-20T12:16:48.722Z,17.10
2022-09-20T12:21:06.517Z,17.50
2022-09-20T12:25:38.611Z,18.00
2022-09-20T12:29:35.981Z,19.40
2022-09-20T12:34:16.009Z,19.10
2022-09-20T12:38:22.161Z,19.00
2022-09-20T12:42:19.028Z,19.20
2022-09-20T12:46:30.113Z,18.60
2022-09-20T12:50:46.832Z,18.70
2022-09-20T12:54:53.572Z,19.20
2022-09-20T12:58:56.530Z,19.50
2022-09-20T13:02:54.082Z,19.00
2022-09-20T13:07:33.395Z,20.20
2022-09-20T13:11:44.596Z,20.90
2022-09-20T13:15:51.774Z,20.70
2022-09-20T13:19:50.788Z,21.10
2022-09-20T13:23:54.304Z,21.20
2022-09-20T13:28:27.512Z,21.10
2022-09-20T13:32:26.560Z,20.70
2022-09-20T13:36:30.313Z,20.90
2022-09-20T13:40:39.319Z,20.90
2022-09-20T13:44:37.260Z,20.70
2022-09-20T13:48:34.825Z,20.80
2022-09-20T13:52:32.615Z,20.30
2022-09-20T13:56:31.677Z,19.10
2022-09-20T14:00:31.638Z,18.40
2022-09-20T14:04:31.448Z,18.70
2022-09-20T14:08:46.969Z,17.30
2022-09-20T14:12:46.669Z,15.30
2022-09-20T14:16:46.921Z,14.20
2022-09-20T14:20:45.929Z,13.70
2022-09-20T14:24:59.761Z,13.40
2022-09-20T14:28:56.843Z,13.20
2022-09-20T14:32:59.756Z,13.00
2022-09-20T14:37:20.762Z,12.60
2022-09-20T14:41:38.803Z,12.20
2022-09-20T14:45:39.911Z,11.60
2022-09-20T14:49:44.254Z,11.20
2022-09-20T14:53:41.273Z,11.10
2022-09-20T14:57:38.329Z,10.90
2022-09-20T15:01:41.182Z,10.80
2022-09-20T15:05:38.140Z,10.90
2022-09-20T15:09:35.412Z,11.00
2022-09-20T15:13:32.583Z,11.10
2022-09-20T15:17:29.593Z,11.00
2022-09-20T15:21:27.022Z,11.00
2022-09-20T15:25:24.654Z,11.00
2022-09-20T15:29:22.108Z,11.00
2022-09-20T15:33:21.545Z,11.00
2022-09-20T15:37:18.512Z,11.10
2022-09-20T15:41:15.472Z,11.00
2022-09-20T15:45:12.630Z,10.80
2022-09-20T15:49:12.380Z,10.60
2022-09-20T15:53:09.608Z,10.50
2022-09-20T15:57:06.583Z,10.30
2022-09-20T16:01:08.688Z,10.10
2022-09-20T16:05:06.701Z,10.10
2022-09-20T16:09:04.640Z,10.10
2022-09-20T16:13:01.615Z,10.10
2022-09-20T16:16:58.598Z,10.10
2022-09-20T16:20:55.563Z,10.40
2022-09-20T16:24:52.522Z,10.60
2022-09-20T16:28:49.645Z,10.50
2022-09-20T16:32:47.276Z,10.50
2022-09-20T16:36:45.522Z,10.50
2022-09-20T16:40:42.835Z,10.50
2022-09-20T16:44:42.925Z,10.30
2022-09-20T16:48:39.937Z,10.10
2022-09-20T16:52:37.851Z,9.90
2022-09-20T16:56:35.682Z,9.60
2022-09-20T17:00:33.863Z,9.40
2022-09-20T17:04:30.846Z,9.20
2022-09-20T17:08:28.210Z,9.10
2022-09-20T17:12:29.034Z,8.90
2022-09-20T17:16:35.280Z,8.80
2022-09-20T17:20:34.095Z,8.60
2022-09-20T17:24:31.037Z,8.50
2022-09-20T17:28:28.006Z,8.40
2022-09-20T17:32:24.972Z,8.30
2022-09-20T17:36:22.096Z,8.30
2022-09-20T17:40:19.201Z,8.30
2022-09-20T17:44:17.012Z,8.30
2022-09-20T17:48:15.037Z,8.30
2022-09-20T17:52:12.018Z,8.40
2022-09-20T17:56:13.379Z,8.40
2022-09-20T18:00:11.311Z,8.30
2022-09-20T18:04:10.882Z,8.30
2022-09-20T18:08:07.827Z,8.30
2022-09-20T18:12:05.372Z,8.40
2022-09-20T18:16:04.342Z,8.40
2022-09-20T18:20:01.978Z,8.40
2022-09-20T18:23:59.188Z,8.40
2022-09-20T18:27:56.602Z,8.40
2022-09-20T18:31:54.611Z,8.30
2022-09-20T18:35:51.585Z,8.30
2022-09-20T18:39:49.665Z,8.30
2022-09-20T18:43:47.167Z,8.30
2022-09-20T18:47:44.810Z,8.20
2022-09-20T18:51:43.758Z,8.10
2022-09-20T18:55:41.624Z,8.10
2022-09-20T18:59:40.249Z,8.00
2022-09-20T19:04:07.896Z,7.90
2022-09-20T19:08:40.834Z,7.70
2022-09-20T19:13:05.226Z,7.50
2022-09-20T19:17:02.640Z,7.40
2022-09-20T19:21:29.497Z,7.20
2022-09-20T19:25:45.398Z,7.20
2022-09-20T19:29:42.936Z,7.10
2022-09-20T19:33:40.274Z,7.00
2022-09-20T19:38:15.623Z,6.90
2022-09-20T19:42:36.172Z,6.80
2022-09-20T19:46:47.590Z,6.80
2022-09-20T19:50:50.124Z,6.70
2022-09-20T19:54:47.961Z,6.60
2022-09-20T19:58:45.474Z,6.50
2022-09-20T20:02:44.781Z,6.50
2022-09-20T20:06:50.171Z,6.40
2022-09-20T20:11:34.460Z,6.30
2022-09-20T20:16:01.003Z,6.30
2022-09-20T20:20:44.324Z,6.20
2022-09-20T20:24:52.512Z,6.20
2022-09-20T20:28:51.807Z,6.10
2022-09-20T20:32:48.740Z,6.00
2022-09-20T20:36:45.708Z,6.00
2022-09-20T20:40:42.660Z,5.90
2022-09-20T20:44:40.153Z,5.90
2022-09-20T20:48:39.291Z,5.80
2022-09-20T20:52:36.250Z,5.80
2022-09-20T20:56:33.205Z,5.80
2022-09-20T21:00:30.975Z,5.70
2022-09-20T21:04:28.621Z,5.80
2022-09-20T21:08:35.449Z,5.70
2022-09-20T21:12:32.374Z,5.70
2022-09-20T21:16:39.639Z,5.70
2022-09-20T21:20:38.634Z,5.60
2022-09-20T21:24:35.637Z,5.60
2022-09-20T21:28:33.052Z,5.60
2022-09-20T21:32:30.388Z,5.60
2022-09-20T21:36:30.928Z,5.60
2022-09-20T21:40:27.904Z,5.50
2022-09-20T21:44:25.158Z,5.50
2022-09-20T21:48:22.119Z,5.40
2022-09-20T21:52:19.091Z,5.40
2022-09-20T21:56:17.678Z,5.40
2022-09-20T22:00:15.750Z,5.50
2022-09-20T22:04:12.962Z,5.60
2022-09-20T22:08:09.871Z,5.60
2022-09-20T22:12:06.930Z,5.60
2022-09-20T22:16:14.747Z,5.50
2022-09-20T22:20:11.711Z,5.50
2022-09-20T22:24:11.176Z,5.50
2022-09-20T22:28:08.147Z,5.50
2022-09-20T22:32:05.352Z,5.40
2022-09-20T22:36:02.680Z,5.40
2022-09-20T22:39:59.898Z,5.40
2022-09-20T22:43:56.994Z,5.40
2022-09-20T22:47:53.952Z,5.40
2022-09-20T22:51:50.909Z,5.40
2022-09-20T22:55:47.828Z,5.30
2022-09-20T22:59:44.821Z,5.20
2022-09-20T23:03:45.437Z,5.20
2022-09-20T23:07:42.417Z,5.10
2022-09-20T23:11:42.860Z,5.10
2022-09-20T23:15:39.792Z,5.00
2022-09-20T23:19:36.760Z,5.00
2022-09-20T23:23:36.711Z,4.90
2022-09-20T23:27:33.776Z,4.90
2022-09-20T23:31:34.695Z,4.80
2022-09-20T23:35:31.643Z,4.70
2022-09-20T23:39:28.614Z,4.70
2022-09-20T23:43:25.578Z,4.60
2022-09-20T23:47:22.704Z,4.60
2022-09-20T23:51:23.843Z,4.50
2022-09-20T23:55:20.853Z,4.50
2022-09-20T23:59:17.867Z,4.40
